sensor_id;sensor_type;location;lat;lon;timestamp;P1;durP1;ratioP1;P2;durP2;ratioP2
38208;SDS011;24016;52.102;11.584;2024-03-25T00:00:08;3.80;;;2.42;;
38208;SDS011;24016;52.102;11.584;2024-03-25T00:02:36;5.00;;;2.50;;
38208;SDS011;24016;52.102;11.584;2024-03-25T00:05:02;5.43;;;2.60;;
38208;SDS011;24016;52.102;11.584;2024-03-25T00:07:28;4.50;;;2.15;;
38208;SDS011;24016;52.102;11.584;2024-03-25T00:09:54;6.15;;;2.33;;
38208;SDS011;24016;52.102;11.584;2024-03-25T00:12:20;4.88;;;2.33;;
38208;SDS011;24016;52.102;11.584;2024-03-25T00:14:45;2.58;;;1.98;;
38208;SDS011;24016;52.102;11.584;2024-03-25T00:17:11;4.88;;;2.35;;
38208;SDS011;24016;52.102;11.584;2024-03-25T00:19:36;3.67;;;2.42;;
38208;SDS011;24016;52.102;11.584;2024-03-25T00:22:02;4.60;;;2.33;;
38208;SDS011;24016;52.102;11.584;2024-03-25T00:24:28;4.00;;;2.40;;
38208;SDS011;24016;52.102;11.584;2024-03-25T00:26:53;5.78;;;2.60;;
38208;SDS011;24016;52.102;11.584;2024-03-25T00:29:19;4.63;;;2.55;;
38208;SDS011;24016;52.102;11.584;2024-03-25T00:31:45;4.85;;;2.50;;
38208;SDS011;24016;52.102;11.584;2024-03-25T00:34:10;4.28;;;2.40;;
38208;SDS011;24016;52.102;11.584;2024-03-25T00:36:36;4.70;;;3.08;;
38208;SDS011;24016;52.102;11.584;2024-03-25T00:39:01;4.20;;;2.83;;
38208;SDS011;24016;52.102;11.584;2024-03-25T00:41:27;6.20;;;2.20;;
38208;SDS011;24016;52.102;11.584;2024-03-25T00:43:52;4.97;;;2.20;;
38208;SDS011;24016;52.102;11.584;2024-03-25T00:46:18;4.90;;;2.10;;
38208;SDS011;24016;52.102;11.584;2024-03-25T00:48:43;4.57;;;2.22;;
38208;SDS011;24016;52.102;11.584;2024-03-25T00:51:09;9.07;;;2.38;;
38208;SDS011;24016;52.102;11.584;2024-03-25T00:53:34;3.40;;;1.80;;
38208;SDS011;24016;52.102;11.584;2024-03-25T00:56:00;3.80;;;1.80;;
38208;SDS011;24016;52.102;11.584;2024-03-25T00:58:26;3.30;;;1.60;;
38208;SDS011;24016;52.102;11.584;2024-03-25T01:00:51;3.40;;;1.60;;
38208;SDS011;24016;52.102;11.584;2024-03-25T01:03:17;2.97;;;2.00;;
38208;SDS011;24016;52.102;11.584;2024-03-25T01:05:42;4.57;;;1.83;;
38208;SDS011;24016;52.102;11.584;2024-03-25T01:08:08;4.50;;;2.10;;
38208;SDS011;24016;52.102;11.584;2024-03-25T01:10:36;3.33;;;1.85;;
38208;SDS011;24016;52.102;11.584;2024-03-25T01:13:01;3.33;;;2.20;;
38208;SDS011;24016;52.102;11.584;2024-03-25T01:15:27;3.00;;;1.67;;
38208;SDS011;24016;52.102;11.584;2024-03-25T01:17:52;4.22;;;1.95;;
38208;SDS011;24016;52.102;11.584;2024-03-25T01:20:18;5.68;;;2.30;;
38208;SDS011;24016;52.102;11.584;2024-03-25T01:22:43;6.53;;;2.70;;
38208;SDS011;24016;52.102;11.584;2024-03-25T01:25:09;5.80;;;2.17;;
38208;SDS011;24016;52.102;11.584;2024-03-25T01:27:34;6.15;;;2.40;;
38208;SDS011;24016;52.102;11.584;2024-03-25T01:30:00;6.50;;;2.22;;
38208;SDS011;24016;52.102;11.584;2024-03-25T01:32:28;6.65;;;2.30;;
38208;SDS011;24016;52.102;11.584;2024-03-25T01:34:54;3.83;;;2.05;;
38208;SDS011;24016;52.102;11.584;2024-03-25T01:37:20;4.30;;;1.90;;
38208;SDS011;24016;52.102;11.584;2024-03-25T01:39:45;4.82;;;1.95;;
38208;SDS011;24016;52.102;11.584;2024-03-25T01:42:11;4.25;;;1.92;;
38208;SDS011;24016;52.102;11.584;2024-03-25T01:44:36;3.22;;;1.48;;
38208;SDS011;24016;52.102;11.584;2024-03-25T01:47:02;2.63;;;1.45;;
38208;SDS011;24016;52.102;11.584;2024-03-25T01:49:28;6.35;;;1.90;;
38208;SDS011;24016;52.102;11.584;2024-03-25T01:51:53;5.65;;;1.90;;
38208;SDS011;24016;52.102;11.584;2024-03-25T01:54:20;4.03;;;1.65;;
38208;SDS011;24016;52.102;11.584;2024-03-25T01:56:46;3.42;;;1.73;;
38208;SDS011;24016;52.102;11.584;2024-03-25T01:59:12;3.33;;;1.85;;
38208;SDS011;24016;52.102;11.584;2024-03-25T02:01:41;5.47;;;1.90;;
38208;SDS011;24016;52.102;11.584;2024-03-25T02:04:08;4.03;;;2.10;;
38208;SDS011;24016;52.102;11.584;2024-03-25T02:06:34;6.40;;;2.50;;
38208;SDS011;24016;52.102;11.584;2024-03-25T02:09:01;6.78;;;1.90;;
38208;SDS011;24016;52.102;11.584;2024-03-25T02:11:28;4.50;;;2.00;;
38208;SDS011;24016;52.102;11.584;2024-03-25T02:13:55;5.20;;;1.85;;
38208;SDS011;24016;52.102;11.584;2024-03-25T02:16:20;5.20;;;2.15;;
38208;SDS011;24016;52.102;11.584;2024-03-25T02:18:46;4.55;;;2.00;;
38208;SDS011;24016;52.102;11.584;2024-03-25T02:21:11;5.25;;;2.17;;
38208;SDS011;24016;52.102;11.584;2024-03-25T02:23:38;5.45;;;2.40;;
38208;SDS011;24016;52.102;11.584;2024-03-25T02:26:07;5.43;;;2.40;;
38208;SDS011;24016;52.102;11.584;2024-03-25T02:28:32;5.22;;;2.38;;
38208;SDS011;24016;52.102;11.584;2024-03-25T02:30:58;4.55;;;2.63;;
38208;SDS011;24016;52.102;11.584;2024-03-25T02:33:24;4.65;;;2.50;;
38208;SDS011;24016;52.102;11.584;2024-03-25T02:35:49;7.65;;;2.78;;
38208;SDS011;24016;52.102;11.584;2024-03-25T02:38:14;5.05;;;2.60;;
38208;SDS011;24016;52.102;11.584;2024-03-25T02:40:42;4.22;;;2.20;;
38208;SDS011;24016;52.102;11.584;2024-03-25T02:43:09;5.15;;;2.67;;
38208;SDS011;24016;52.102;11.584;2024-03-25T02:45:35;6.32;;;2.80;;
38208;SDS011;24016;52.102;11.584;2024-03-25T02:48:01;4.20;;;2.70;;
38208;SDS011;24016;52.102;11.584;2024-03-25T02:50:26;6.68;;;3.05;;
38208;SDS011;24016;52.102;11.584;2024-03-25T02:52:52;6.10;;;2.55;;
38208;SDS011;24016;52.102;11.584;2024-03-25T02:55:18;6.22;;;2.53;;
38208;SDS011;24016;52.102;11.584;2024-03-25T02:57:44;5.90;;;2.97;;
38208;SDS011;24016;52.102;11.584;2024-03-25T03:00:09;5.78;;;3.58;;
38208;SDS011;24016;52.102;11.584;2024-03-25T03:02:35;6.82;;;3.00;;
38208;SDS011;24016;52.102;11.584;2024-03-25T03:05:02;5.88;;;2.75;;
38208;SDS011;24016;52.102;11.584;2024-03-25T03:07:29;5.88;;;2.83;;
38208;SDS011;24016;52.102;11.584;2024-03-25T03:09:54;7.65;;;3.25;;
38208;SDS011;24016;52.102;11.584;2024-03-25T03:12:20;7.35;;;3.05;;
38208;SDS011;24016;52.102;11.584;2024-03-25T03:14:45;6.60;;;3.13;;
38208;SDS011;24016;52.102;11.584;2024-03-25T03:17:11;10.18;;;2.83;;
38208;SDS011;24016;52.102;11.584;2024-03-25T03:19:36;6.10;;;3.00;;
38208;SDS011;24016;52.102;11.584;2024-03-25T03:22:02;7.80;;;3.10;;
38208;SDS011;24016;52.102;11.584;2024-03-25T03:24:28;9.40;;;3.38;;
38208;SDS011;24016;52.102;11.584;2024-03-25T03:26:53;5.15;;;2.55;;
38208;SDS011;24016;52.102;11.584;2024-03-25T03:29:19;4.57;;;2.72;;
38208;SDS011;24016;52.102;11.584;2024-03-25T03:31:44;6.30;;;3.10;;
38208;SDS011;24016;52.102;11.584;2024-03-25T03:34:10;6.68;;;3.42;;
38208;SDS011;24016;52.102;11.584;2024-03-25T03:36:35;6.03;;;2.83;;
38208;SDS011;24016;52.102;11.584;2024-03-25T03:39:01;6.82;;;3.00;;
38208;SDS011;24016;52.102;11.584;2024-03-25T03:41:28;6.60;;;2.95;;
38208;SDS011;24016;52.102;11.584;2024-03-25T03:43:54;6.72;;;2.85;;
38208;SDS011;24016;52.102;11.584;2024-03-25T03:46:19;5.72;;;2.83;;
38208;SDS011;24016;52.102;11.584;2024-03-25T03:48:45;3.67;;;2.70;;
38208;SDS011;24016;52.102;11.584;2024-03-25T03:51:11;3.90;;;2.38;;
38208;SDS011;24016;52.102;11.584;2024-03-25T03:53:36;11.70;;;2.58;;
38208;SDS011;24016;52.102;11.584;2024-03-25T03:56:03;6.50;;;2.50;;
38208;SDS011;24016;52.102;11.584;2024-03-25T03:58:34;4.32;;;2.30;;
38208;SDS011;24016;52.102;11.584;2024-03-25T04:01:00;3.38;;;2.58;;
38208;SDS011;24016;52.102;11.584;2024-03-25T04:03:25;5.05;;;2.70;;
38208;SDS011;24016;52.102;11.584;2024-03-25T04:05:51;6.75;;;3.17;;
38208;SDS011;24016;52.102;11.584;2024-03-25T04:08:17;8.05;;;3.58;;
38208;SDS011;24016;52.102;11.584;2024-03-25T04:10:43;8.40;;;3.97;;
38208;SDS011;24016;52.102;11.584;2024-03-25T04:13:09;7.30;;;3.65;;
38208;SDS011;24016;52.102;11.584;2024-03-25T04:15:36;5.40;;;3.67;;
38208;SDS011;24016;52.102;11.584;2024-03-25T04:18:02;8.40;;;4.22;;
38208;SDS011;24016;52.102;11.584;2024-03-25T04:20:28;6.95;;;3.47;;
38208;SDS011;24016;52.102;11.584;2024-03-25T04:22:54;7.80;;;4.32;;
38208;SDS011;24016;52.102;11.584;2024-03-25T04:25:20;6.20;;;3.35;;
38208;SDS011;24016;52.102;11.584;2024-03-25T04:27:45;7.65;;;3.80;;
38208;SDS011;24016;52.102;11.584;2024-03-25T04:30:11;4.57;;;3.08;;
38208;SDS011;24016;52.102;11.584;2024-03-25T04:32:39;8.02;;;4.30;;
38208;SDS011;24016;52.102;11.584;2024-03-25T04:35:05;9.15;;;3.22;;
38208;SDS011;24016;52.102;11.584;2024-03-25T04:37:32;5.07;;;3.30;;
38208;SDS011;24016;52.102;11.584;2024-03-25T04:39:58;8.55;;;3.30;;
38208;SDS011;24016;52.102;11.584;2024-03-25T04:42:24;6.00;;;3.10;;
38208;SDS011;24016;52.102;11.584;2024-03-25T04:44:50;7.97;;;3.17;;
38208;SDS011;24016;52.102;11.584;2024-03-25T04:47:16;7.38;;;3.00;;
38208;SDS011;24016;52.102;11.584;2024-03-25T04:49:43;8.50;;;3.17;;
38208;SDS011;24016;52.102;11.584;2024-03-25T04:52:09;5.50;;;2.90;;
38208;SDS011;24016;52.102;11.584;2024-03-25T04:54:44;7.63;;;3.15;;
38208;SDS011;24016;52.102;11.584;2024-03-25T04:57:09;8.23;;;3.05;;
38208;SDS011;24016;52.102;11.584;2024-03-25T04:59:35;7.70;;;2.45;;
38208;SDS011;24016;52.102;11.584;2024-03-25T05:02:01;4.75;;;2.58;;
38208;SDS011;24016;52.102;11.584;2024-03-25T05:04:27;4.45;;;2.83;;
38208;SDS011;24016;52.102;11.584;2024-03-25T05:06:52;5.20;;;2.60;;
38208;SDS011;24016;52.102;11.584;2024-03-25T05:09:18;6.25;;;3.00;;
38208;SDS011;24016;52.102;11.584;2024-03-25T05:11:43;7.15;;;2.92;;
38208;SDS011;24016;52.102;11.584;2024-03-25T05:14:09;6.93;;;3.10;;
38208;SDS011;24016;52.102;11.584;2024-03-25T05:16:35;9.23;;;3.40;;
38208;SDS011;24016;52.102;11.584;2024-03-25T05:19:01;6.63;;;2.95;;
38208;SDS011;24016;52.102;11.584;2024-03-25T05:21:27;6.10;;;3.17;;
38208;SDS011;24016;52.102;11.584;2024-03-25T05:23:53;6.75;;;3.60;;
38208;SDS011;24016;52.102;11.584;2024-03-25T05:26:18;7.78;;;3.22;;
38208;SDS011;24016;52.102;11.584;2024-03-25T05:28:44;8.88;;;4.07;;
38208;SDS011;24016;52.102;11.584;2024-03-25T05:31:09;9.63;;;3.90;;
38208;SDS011;24016;52.102;11.584;2024-03-25T05:33:35;8.10;;;3.72;;
38208;SDS011;24016;52.102;11.584;2024-03-25T05:36:01;6.03;;;3.40;;
38208;SDS011;24016;52.102;11.584;2024-03-25T05:38:27;8.02;;;3.95;;
38208;SDS011;24016;52.102;11.584;2024-03-25T05:40:53;7.18;;;3.40;;
38208;SDS011;24016;52.102;11.584;2024-03-25T05:43:19;6.35;;;3.20;;
38208;SDS011;24016;52.102;11.584;2024-03-25T05:45:52;6.25;;;3.10;;
38208;SDS011;24016;52.102;11.584;2024-03-25T05:48:21;7.63;;;4.05;;
38208;SDS011;24016;52.102;11.584;2024-03-25T05:51:02;7.43;;;3.92;;
38208;SDS011;24016;52.102;11.584;2024-03-25T05:53:34;10.60;;;3.90;;
38208;SDS011;24016;52.102;11.584;2024-03-25T05:56:00;9.82;;;3.78;;
38208;SDS011;24016;52.102;11.584;2024-03-25T05:58:26;5.97;;;3.42;;
38208;SDS011;24016;52.102;11.584;2024-03-25T06:00:52;6.72;;;3.88;;
38208;SDS011;24016;52.102;11.584;2024-03-25T06:03:18;5.28;;;3.05;;
38208;SDS011;24016;52.102;11.584;2024-03-25T06:05:44;6.05;;;3.45;;
38208;SDS011;24016;52.102;11.584;2024-03-25T06:08:09;8.63;;;3.50;;
38208;SDS011;24016;52.102;11.584;2024-03-25T06:10:43;6.88;;;3.47;;
38208;SDS011;24016;52.102;11.584;2024-03-25T06:13:09;6.55;;;3.47;;
38208;SDS011;24016;52.102;11.584;2024-03-25T06:15:34;7.15;;;3.80;;
38208;SDS011;24016;52.102;11.584;2024-03-25T06:18:00;7.82;;;3.90;;
38208;SDS011;24016;52.102;11.584;2024-03-25T06:20:26;7.30;;;3.22;;
38208;SDS011;24016;52.102;11.584;2024-03-25T06:22:51;7.97;;;3.75;;
38208;SDS011;24016;52.102;11.584;2024-03-25T06:25:17;10.35;;;3.45;;
38208;SDS011;24016;52.102;11.584;2024-03-25T06:27:43;5.72;;;3.15;;
38208;SDS011;24016;52.102;11.584;2024-03-25T06:30:09;6.47;;;3.38;;
38208;SDS011;24016;52.102;11.584;2024-03-25T06:32:54;7.57;;;3.95;;
38208;SDS011;24016;52.102;11.584;2024-03-25T06:35:38;4.63;;;2.90;;
38208;SDS011;24016;52.102;11.584;2024-03-25T06:38:03;8.95;;;3.67;;
38208;SDS011;24016;52.102;11.584;2024-03-25T06:40:29;10.57;;;3.65;;
38208;SDS011;24016;52.102;11.584;2024-03-25T06:42:55;7.15;;;2.85;;
38208;SDS011;24016;52.102;11.584;2024-03-25T06:45:21;8.18;;;3.13;;
38208;SDS011;24016;52.102;11.584;2024-03-25T06:47:47;5.10;;;3.20;;
38208;SDS011;24016;52.102;11.584;2024-03-25T06:50:12;5.85;;;2.95;;
38208;SDS011;24016;52.102;11.584;2024-03-25T06:52:38;6.35;;;3.10;;
38208;SDS011;24016;52.102;11.584;2024-03-25T06:55:03;6.15;;;2.97;;
38208;SDS011;24016;52.102;11.584;2024-03-25T06:57:29;7.18;;;2.90;;
38208;SDS011;24016;52.102;11.584;2024-03-25T06:59:55;5.43;;;2.95;;
38208;SDS011;24016;52.102;11.584;2024-03-25T07:02:22;4.70;;;2.28;;
38208;SDS011;24016;52.102;11.584;2024-03-25T07:04:48;6.57;;;2.90;;
38208;SDS011;24016;52.102;11.584;2024-03-25T07:07:14;5.35;;;2.47;;
38208;SDS011;24016;52.102;11.584;2024-03-25T07:09:39;9.68;;;2.78;;
38208;SDS011;24016;52.102;11.584;2024-03-25T07:12:05;5.82;;;2.85;;
38208;SDS011;24016;52.102;11.584;2024-03-25T07:14:30;5.43;;;2.78;;
38208;SDS011;24016;52.102;11.584;2024-03-25T07:16:56;6.50;;;2.97;;
38208;SDS011;24016;52.102;11.584;2024-03-25T07:19:21;7.55;;;3.05;;
38208;SDS011;24016;52.102;11.584;2024-03-25T07:21:47;5.63;;;2.72;;
38208;SDS011;24016;52.102;11.584;2024-03-25T07:24:12;6.28;;;2.75;;
38208;SDS011;24016;52.102;11.584;2024-03-25T07:26:38;6.78;;;2.97;;
38208;SDS011;24016;52.102;11.584;2024-03-25T07:29:03;7.18;;;3.05;;
38208;SDS011;24016;52.102;11.584;2024-03-25T07:31:29;7.90;;;2.83;;
38208;SDS011;24016;52.102;11.584;2024-03-25T07:33:54;6.00;;;3.08;;
38208;SDS011;24016;52.102;11.584;2024-03-25T07:36:20;7.47;;;2.88;;
38208;SDS011;24016;52.102;11.584;2024-03-25T07:38:45;9.65;;;3.10;;
38208;SDS011;24016;52.102;11.584;2024-03-25T07:41:11;8.10;;;2.72;;
38208;SDS011;24016;52.102;11.584;2024-03-25T07:43:37;4.72;;;2.15;;
38208;SDS011;24016;52.102;11.584;2024-03-25T07:46:02;4.93;;;2.17;;
38208;SDS011;24016;52.102;11.584;2024-03-25T07:48:28;4.82;;;1.95;;
38208;SDS011;24016;52.102;11.584;2024-03-25T07:50:53;6.13;;;2.00;;
38208;SDS011;24016;52.102;11.584;2024-03-25T07:53:19;3.92;;;2.33;;
38208;SDS011;24016;52.102;11.584;2024-03-25T07:55:44;6.13;;;1.80;;
38208;SDS011;24016;52.102;11.584;2024-03-25T07:58:10;4.32;;;2.28;;
38208;SDS011;24016;52.102;11.584;2024-03-25T08:00:35;5.20;;;2.17;;
38208;SDS011;24016;52.102;11.584;2024-03-25T08:03:01;8.18;;;2.47;;
38208;SDS011;24016;52.102;11.584;2024-03-25T08:05:28;5.05;;;2.28;;
38208;SDS011;24016;52.102;11.584;2024-03-25T08:07:55;5.90;;;2.28;;
38208;SDS011;24016;52.102;11.584;2024-03-25T08:10:20;6.00;;;2.47;;
38208;SDS011;24016;52.102;11.584;2024-03-25T08:12:46;3.92;;;2.30;;
38208;SDS011;24016;52.102;11.584;2024-03-25T08:15:11;3.60;;;2.00;;
38208;SDS011;24016;52.102;11.584;2024-03-25T08:17:38;4.53;;;1.88;;
38208;SDS011;24016;52.102;11.584;2024-03-25T08:20:04;4.35;;;1.95;;
38208;SDS011;24016;52.102;11.584;2024-03-25T08:22:30;5.47;;;2.38;;
38208;SDS011;24016;52.102;11.584;2024-03-25T08:24:55;4.03;;;1.90;;
38208;SDS011;24016;52.102;11.584;2024-03-25T08:27:21;5.63;;;2.28;;
38208;SDS011;24016;52.102;11.584;2024-03-25T08:29:47;4.85;;;1.92;;
38208;SDS011;24016;52.102;11.584;2024-03-25T08:32:14;4.85;;;2.20;;
38208;SDS011;24016;52.102;11.584;2024-03-25T08:34:39;5.00;;;2.40;;
38208;SDS011;24016;52.102;11.584;2024-03-25T08:37:04;4.45;;;2.10;;
38208;SDS011;24016;52.102;11.584;2024-03-25T08:39:30;5.00;;;1.95;;
38208;SDS011;24016;52.102;11.584;2024-03-25T08:41:55;5.55;;;2.17;;
38208;SDS011;24016;52.102;11.584;2024-03-25T08:44:21;4.82;;;2.33;;
38208;SDS011;24016;52.102;11.584;2024-03-25T08:46:46;7.15;;;2.60;;
38208;SDS011;24016;52.102;11.584;2024-03-25T08:49:12;4.90;;;2.10;;
38208;SDS011;24016;52.102;11.584;2024-03-25T08:51:37;8.45;;;2.17;;
38208;SDS011;24016;52.102;11.584;2024-03-25T08:54:03;5.40;;;2.20;;
38208;SDS011;24016;52.102;11.584;2024-03-25T08:56:28;5.45;;;2.30;;
38208;SDS011;24016;52.102;11.584;2024-03-25T08:58:54;6.68;;;2.42;;
38208;SDS011;24016;52.102;11.584;2024-03-25T09:01:19;4.85;;;1.98;;
38208;SDS011;24016;52.102;11.584;2024-03-25T09:03:45;6.05;;;2.20;;
38208;SDS011;24016;52.102;11.584;2024-03-25T09:06:11;5.88;;;2.03;;
38208;SDS011;24016;52.102;11.584;2024-03-25T09:08:36;5.45;;;1.95;;
38208;SDS011;24016;52.102;11.584;2024-03-25T09:11:22;5.60;;;1.98;;
38208;SDS011;24016;52.102;11.584;2024-03-25T09:13:49;4.72;;;2.20;;
38208;SDS011;24016;52.102;11.584;2024-03-25T09:16:15;3.60;;;1.80;;
38208;SDS011;24016;52.102;11.584;2024-03-25T09:18:40;4.18;;;1.98;;
38208;SDS011;24016;52.102;11.584;2024-03-25T09:21:06;7.47;;;2.00;;
38208;SDS011;24016;52.102;11.584;2024-03-25T09:23:31;6.53;;;1.90;;
38208;SDS011;24016;52.102;11.584;2024-03-25T09:25:57;7.40;;;1.70;;
38208;SDS011;24016;52.102;11.584;2024-03-25T09:28:22;4.15;;;1.65;;
38208;SDS011;24016;52.102;11.584;2024-03-25T09:30:48;6.40;;;1.90;;
38208;SDS011;24016;52.102;11.584;2024-03-25T09:33:14;4.90;;;1.63;;
38208;SDS011;24016;52.102;11.584;2024-03-25T09:35:40;7.35;;;1.80;;
38208;SDS011;24016;52.102;11.584;2024-03-25T09:38:05;5.13;;;1.70;;
38208;SDS011;24016;52.102;11.584;2024-03-25T09:40:31;5.38;;;3.13;;
38208;SDS011;24016;52.102;11.584;2024-03-25T09:43:01;4.38;;;1.70;;
38208;SDS011;24016;52.102;11.584;2024-03-25T09:45:28;5.85;;;1.80;;
38208;SDS011;24016;52.102;11.584;2024-03-25T09:47:55;5.32;;;1.70;;
38208;SDS011;24016;52.102;11.584;2024-03-25T09:50:20;4.20;;;1.58;;
38208;SDS011;24016;52.102;11.584;2024-03-25T09:52:47;6.13;;;1.88;;
38208;SDS011;24016;52.102;11.584;2024-03-25T09:55:16;4.88;;;2.00;;
38208;SDS011;24016;52.102;11.584;2024-03-25T09:57:42;6.50;;;2.05;;
38208;SDS011;24016;52.102;11.584;2024-03-25T10:00:08;4.93;;;1.77;;
38208;SDS011;24016;52.102;11.584;2024-03-25T10:02:36;3.45;;;1.40;;
38208;SDS011;24016;52.102;11.584;2024-03-25T10:05:03;4.97;;;1.40;;
38208;SDS011;24016;52.102;11.584;2024-03-25T10:07:30;5.43;;;1.75;;
38208;SDS011;24016;52.102;11.584;2024-03-25T10:09:56;8.32;;;2.10;;
38208;SDS011;24016;52.102;11.584;2024-03-25T10:12:22;4.68;;;1.80;;
38208;SDS011;24016;52.102;11.584;2024-03-25T10:14:48;4.22;;;1.73;;
38208;SDS011;24016;52.102;11.584;2024-03-25T10:17:13;6.32;;;2.05;;
38208;SDS011;24016;52.102;11.584;2024-03-25T10:19:39;5.57;;;1.85;;
38208;SDS011;24016;52.102;11.584;2024-03-25T10:22:05;7.50;;;2.40;;
38208;SDS011;24016;52.102;11.584;2024-03-25T10:24:41;3.90;;;2.22;;
38208;SDS011;24016;52.102;11.584;2024-03-25T10:27:10;5.10;;;2.35;;
38208;SDS011;24016;52.102;11.584;2024-03-25T10:29:45;5.95;;;2.45;;
38208;SDS011;24016;52.102;11.584;2024-03-25T10:32:12;5.70;;;1.95;;
38208;SDS011;24016;52.102;11.584;2024-03-25T10:34:38;5.82;;;2.10;;
38208;SDS011;24016;52.102;11.584;2024-03-25T10:37:04;7.88;;;2.38;;
38208;SDS011;24016;52.102;11.584;2024-03-25T10:39:33;4.25;;;2.38;;
38208;SDS011;24016;52.102;11.584;2024-03-25T10:42:13;5.55;;;2.08;;
38208;SDS011;24016;52.102;11.584;2024-03-25T10:44:39;5.25;;;2.38;;
38208;SDS011;24016;52.102;11.584;2024-03-25T10:47:05;5.25;;;2.33;;
38208;SDS011;24016;52.102;11.584;2024-03-25T10:49:33;4.68;;;1.92;;
38208;SDS011;24016;52.102;11.584;2024-03-25T10:52:03;8.50;;;2.97;;
38208;SDS011;24016;52.102;11.584;2024-03-25T10:54:31;6.90;;;2.45;;
38208;SDS011;24016;52.102;11.584;2024-03-25T10:56:58;8.30;;;2.00;;
38208;SDS011;24016;52.102;11.584;2024-03-25T10:59:26;5.85;;;2.30;;
38208;SDS011;24016;52.102;11.584;2024-03-25T11:01:52;7.78;;;2.25;;
38208;SDS011;24016;52.102;11.584;2024-03-25T11:04:19;7.40;;;2.60;;
38208;SDS011;24016;52.102;11.584;2024-03-25T11:06:45;5.03;;;2.03;;
38208;SDS011;24016;52.102;11.584;2024-03-25T11:09:21;8.45;;;2.15;;
38208;SDS011;24016;52.102;11.584;2024-03-25T11:11:51;9.32;;;2.60;;
38208;SDS011;24016;52.102;11.584;2024-03-25T11:14:17;4.82;;;1.70;;
38208;SDS011;24016;52.102;11.584;2024-03-25T11:16:43;6.20;;;1.70;;
38208;SDS011;24016;52.102;11.584;2024-03-25T11:19:17;5.47;;;1.85;;
38208;SDS011;24016;52.102;11.584;2024-03-25T11:21:43;4.68;;;1.70;;
38208;SDS011;24016;52.102;11.584;2024-03-25T11:24:09;4.43;;;1.38;;
38208;SDS011;24016;52.102;11.584;2024-03-25T11:26:34;3.42;;;1.42;;
38208;SDS011;24016;52.102;11.584;2024-03-25T11:29:05;4.68;;;1.50;;
38208;SDS011;24016;52.102;11.584;2024-03-25T11:31:30;6.05;;;1.70;;
38208;SDS011;24016;52.102;11.584;2024-03-25T11:34:03;5.55;;;1.52;;
38208;SDS011;24016;52.102;11.584;2024-03-25T11:36:29;5.35;;;2.10;;
38208;SDS011;24016;52.102;11.584;2024-03-25T11:39:02;4.82;;;1.60;;
38208;SDS011;24016;52.102;11.584;2024-03-25T11:41:30;5.10;;;1.40;;
38208;SDS011;24016;52.102;11.584;2024-03-25T11:43:58;3.78;;;1.10;;
38208;SDS011;24016;52.102;11.584;2024-03-25T11:46:25;3.30;;;1.33;;
38208;SDS011;24016;52.102;11.584;2024-03-25T11:48:51;6.13;;;1.42;;
38208;SDS011;24016;52.102;11.584;2024-03-25T11:51:18;1.92;;;1.10;;
38208;SDS011;24016;52.102;11.584;2024-03-25T11:53:44;6.28;;;1.90;;
38208;SDS011;24016;52.102;11.584;2024-03-25T11:56:10;4.60;;;1.52;;
38208;SDS011;24016;52.102;11.584;2024-03-25T11:58:36;10.35;;;2.22;;
38208;SDS011;24016;52.102;11.584;2024-03-25T12:01:02;5.78;;;2.03;;
38208;SDS011;24016;52.102;11.584;2024-03-25T12:03:28;5.70;;;1.95;;
38208;SDS011;24016;52.102;11.584;2024-03-25T12:05:55;6.55;;;2.10;;
38208;SDS011;24016;52.102;11.584;2024-03-25T12:08:21;6.93;;;1.92;;
38208;SDS011;24016;52.102;11.584;2024-03-25T12:10:50;5.35;;;1.90;;
38208;SDS011;24016;52.102;11.584;2024-03-25T12:13:35;6.78;;;2.22;;
38208;SDS011;24016;52.102;11.584;2024-03-25T12:16:05;8.30;;;2.25;;
38208;SDS011;24016;52.102;11.584;2024-03-25T12:18:32;7.25;;;2.08;;
38208;SDS011;24016;52.102;11.584;2024-03-25T12:20:59;6.15;;;1.70;;
38208;SDS011;24016;52.102;11.584;2024-03-25T12:23:28;6.57;;;1.80;;
38208;SDS011;24016;52.102;11.584;2024-03-25T12:26:00;4.20;;;1.58;;
38208;SDS011;24016;52.102;11.584;2024-03-25T12:28:27;3.38;;;1.20;;
38208;SDS011;24016;52.102;11.584;2024-03-25T12:30:54;5.72;;;1.70;;
38208;SDS011;24016;52.102;11.584;2024-03-25T12:33:21;3.67;;;1.40;;
38208;SDS011;24016;52.102;11.584;2024-03-25T12:35:48;4.78;;;1.60;;
38208;SDS011;24016;52.102;11.584;2024-03-25T12:38:21;2.72;;;1.30;;
38208;SDS011;24016;52.102;11.584;2024-03-25T12:40:50;5.32;;;1.50;;
38208;SDS011;24016;52.102;11.584;2024-03-25T12:43:16;4.47;;;1.60;;
38208;SDS011;24016;52.102;11.584;2024-03-25T12:45:42;5.00;;;1.67;;
38208;SDS011;24016;52.102;11.584;2024-03-25T12:48:10;4.72;;;1.40;;
38208;SDS011;24016;52.102;11.584;2024-03-25T12:50:36;5.47;;;1.73;;
38208;SDS011;24016;52.102;11.584;2024-03-25T12:53:06;10.15;;;1.88;;
38208;SDS011;24016;52.102;11.584;2024-03-25T12:55:31;4.25;;;1.42;;
38208;SDS011;24016;52.102;11.584;2024-03-25T12:57:57;5.63;;;1.50;;
38208;SDS011;24016;52.102;11.584;2024-03-25T13:00:22;7.82;;;2.13;;
38208;SDS011;24016;52.102;11.584;2024-03-25T13:02:48;7.35;;;2.10;;
38208;SDS011;24016;52.102;11.584;2024-03-25T13:05:15;5.63;;;1.88;;
38208;SDS011;24016;52.102;11.584;2024-03-25T13:07:41;6.47;;;1.95;;
38208;SDS011;24016;52.102;11.584;2024-03-25T13:10:06;7.03;;;1.70;;
38208;SDS011;24016;52.102;11.584;2024-03-25T13:12:32;6.35;;;2.00;;
38208;SDS011;24016;52.102;11.584;2024-03-25T13:14:58;8.02;;;2.20;;
38208;SDS011;24016;52.102;11.584;2024-03-25T13:17:24;6.82;;;1.88;;
38208;SDS011;24016;52.102;11.584;2024-03-25T13:19:50;5.47;;;1.95;;
38208;SDS011;24016;52.102;11.584;2024-03-25T13:22:15;5.38;;;1.60;;
38208;SDS011;24016;52.102;11.584;2024-03-25T13:24:44;7.47;;;2.17;;
38208;SDS011;24016;52.102;11.584;2024-03-25T13:27:09;5.78;;;1.77;;
38208;SDS011;24016;52.102;11.584;2024-03-25T13:29:35;5.63;;;1.80;;
38208;SDS011;24016;52.102;11.584;2024-03-25T13:32:02;7.50;;;2.38;;
38208;SDS011;24016;52.102;11.584;2024-03-25T13:34:28;7.95;;;2.38;;
38208;SDS011;24016;52.102;11.584;2024-03-25T13:36:53;5.40;;;2.03;;
38208;SDS011;24016;52.102;11.584;2024-03-25T13:39:22;5.25;;;1.83;;
38208;SDS011;24016;52.102;11.584;2024-03-25T13:41:48;6.45;;;1.73;;
38208;SDS011;24016;52.102;11.584;2024-03-25T13:44:13;4.97;;;1.80;;
38208;SDS011;24016;52.102;11.584;2024-03-25T13:46:39;5.03;;;1.83;;
38208;SDS011;24016;52.102;11.584;2024-03-25T13:49:05;9.23;;;1.98;;
38208;SDS011;24016;52.102;11.584;2024-03-25T13:51:30;5.22;;;1.70;;
38208;SDS011;24016;52.102;11.584;2024-03-25T13:53:56;6.68;;;2.00;;
38208;SDS011;24016;52.102;11.584;2024-03-25T13:56:21;7.57;;;1.92;;
38208;SDS011;24016;52.102;11.584;2024-03-25T13:58:47;5.50;;;1.60;;
38208;SDS011;24016;52.102;11.584;2024-03-25T14:01:12;6.95;;;2.25;;
38208;SDS011;24016;52.102;11.584;2024-03-25T14:03:38;6.40;;;1.80;;
38208;SDS011;24016;52.102;11.584;2024-03-25T14:06:03;9.95;;;2.30;;
38208;SDS011;24016;52.102;11.584;2024-03-25T14:08:29;5.88;;;1.95;;
38208;SDS011;24016;52.102;11.584;2024-03-25T14:10:58;3.92;;;1.70;;
38208;SDS011;24016;52.102;11.584;2024-03-25T14:13:24;6.38;;;2.25;;
38208;SDS011;24016;52.102;11.584;2024-03-25T14:15:50;5.80;;;2.03;;
38208;SDS011;24016;52.102;11.584;2024-03-25T14:18:17;6.10;;;1.90;;
38208;SDS011;24016;52.102;11.584;2024-03-25T14:20:42;6.95;;;1.90;;
38208;SDS011;24016;52.102;11.584;2024-03-25T14:23:08;10.85;;;2.05;;
38208;SDS011;24016;52.102;11.584;2024-03-25T14:25:34;6.00;;;1.55;;
38208;SDS011;24016;52.102;11.584;2024-03-25T14:27:59;7.68;;;1.77;;